Airport METAR Information

LTBA 210950Z 07014G24KT 9999 BKN025 20/15 Q1023 NOSIG

VATSIM Livefeed

Card image cap

ATC Bookings

No position booked

Card image cap

Active ATC

No controllers online

Blog

Read our latest news and get to know us better.

Back to Home

Türk vACC ve Vatsim Almanya’nın Kuzey Ren-Vestfalya’daki tatillerin sonu için gerçek bir planlanmış slogandır. Gerçek hayatta her iki havalimanının en uçulan yolcu rotasıdır ve şimdi onu Vatsim’de sunuyoruz! Bu tatil servisi, yolcularınızı Türkiye’den Almanya’ya geri Devamı…